createdAt,value
2022-11-21T00:00:42.098Z,2.66
2022-11-21T00:01:42.147Z,2.59
2022-11-21T00:02:42.084Z,2.60
2022-11-21T00:03:42.084Z,2.57
2022-11-21T00:04:42.070Z,2.69
2022-11-21T00:05:42.067Z,2.69
2022-11-21T00:06:42.060Z,2.67
2022-11-21T00:07:42.086Z,2.56
2022-11-21T00:08:42.053Z,2.60
2022-11-21T00:09:42.037Z,2.52
2022-11-21T00:10:42.034Z,2.49
2022-11-21T00:11:42.042Z,2.45
2022-11-21T00:12:42.022Z,2.52
2022-11-21T00:13:42.020Z,2.52
2022-11-21T00:14:42.019Z,2.59
2022-11-21T00:15:42.006Z,2.38
2022-11-21T00:16:41.997Z,2.56
2022-11-21T00:17:41.996Z,2.52
2022-11-21T00:18:41.985Z,2.52
2022-11-21T00:19:41.985Z,2.53
2022-11-21T00:20:41.972Z,2.53
2022-11-21T00:21:41.973Z,2.66
2022-11-21T00:22:41.967Z,2.77
2022-11-21T00:23:41.962Z,2.72
2022-11-21T00:24:41.947Z,2.72
2022-11-21T00:25:41.948Z,2.74
2022-11-21T00:26:41.940Z,2.72
2022-11-21T00:27:41.938Z,2.81
2022-11-21T00:28:41.931Z,2.81
2022-11-21T00:29:41.922Z,2.92
2022-11-21T00:30:41.914Z,2.92
2022-11-21T00:31:41.910Z,2.87
2022-11-21T00:32:41.906Z,2.90
2022-11-21T00:33:41.901Z,2.97
2022-11-21T00:34:41.890Z,2.84
2022-11-21T00:35:41.893Z,3.02
2022-11-21T00:36:41.877Z,3.00
2022-11-21T00:37:41.874Z,2.96
2022-11-21T00:38:41.865Z,3.00
2022-11-21T00:39:41.871Z,3.02
2022-11-21T00:40:41.859Z,3.00
2022-11-21T00:41:41.851Z,3.03
2022-11-21T00:42:41.840Z,3.03
2022-11-21T00:43:41.838Z,3.14
2022-11-21T00:44:41.832Z,2.95
2022-11-21T00:45:41.829Z,2.95
2022-11-21T00:46:41.825Z,2.93
2022-11-21T00:47:41.816Z,3.00
2022-11-21T00:48:41.811Z,2.92
2022-11-21T00:49:41.803Z,2.81
2022-11-21T00:50:41.794Z,2.95
2022-11-21T00:51:41.794Z,2.90
2022-11-21T00:52:41.791Z,2.85
2022-11-21T00:53:41.781Z,2.74
2022-11-21T00:54:41.779Z,2.75
2022-11-21T00:55:41.770Z,2.71
2022-11-21T00:56:41.761Z,2.69
2022-11-21T00:57:41.754Z,2.69
2022-11-21T00:58:41.746Z,2.77
2022-11-21T00:59:41.746Z,2.74
2022-11-21T01:00:41.787Z,2.63
2022-11-21T01:01:41.736Z,2.60
2022-11-21T01:02:41.727Z,2.57
2022-11-21T01:03:41.748Z,2.56
2022-11-21T01:04:41.710Z,2.52
2022-11-21T01:05:41.714Z,2.46
2022-11-21T01:06:41.699Z,2.57
2022-11-21T01:07:41.806Z,2.61
2022-11-21T01:08:41.687Z,2.59
2022-11-21T01:09:41.687Z,2.71
2022-11-21T01:10:41.682Z,2.77
2022-11-21T01:11:41.677Z,2.69
2022-11-21T01:12:41.689Z,2.79
2022-11-21T01:13:41.663Z,2.92
2022-11-21T01:14:41.650Z,2.95
2022-11-21T01:15:41.651Z,2.93
2022-11-21T01:16:41.646Z,2.95
2022-11-21T01:17:41.638Z,2.97
2022-11-21T01:18:41.633Z,3.00
2022-11-21T01:19:41.628Z,2.96
2022-11-21T01:20:41.617Z,2.92
2022-11-21T01:21:41.616Z,2.97
2022-11-21T01:22:41.610Z,2.89
2022-11-21T01:23:41.603Z,2.93
2022-11-21T01:24:41.604Z,2.90
2022-11-21T01:25:41.594Z,2.87
2022-11-21T01:26:41.583Z,2.74
2022-11-21T01:27:41.582Z,2.72
2022-11-21T01:28:41.592Z,2.71
2022-11-21T01:29:41.567Z,2.61
2022-11-21T01:30:41.561Z,2.71
2022-11-21T01:31:41.555Z,2.75
2022-11-21T01:32:41.550Z,2.71
2022-11-21T01:33:41.552Z,2.72
2022-11-21T01:34:41.538Z,2.67
2022-11-21T01:35:41.533Z,2.75
2022-11-21T01:36:41.529Z,2.75
2022-11-21T01:37:41.520Z,2.77
2022-11-21T01:38:41.512Z,2.82
2022-11-21T01:39:41.509Z,2.75
2022-11-21T01:40:41.504Z,2.77
2022-11-21T01:41:41.496Z,2.74
2022-11-21T01:42:41.492Z,2.72
2022-11-21T01:43:41.490Z,2.72
2022-11-21T01:44:41.503Z,2.75
2022-11-21T01:45:41.473Z,2.67
2022-11-21T01:46:41.469Z,2.74
2022-11-21T01:47:41.465Z,2.71
2022-11-21T01:48:41.454Z,2.77
2022-11-21T01:49:41.461Z,2.75
2022-11-21T01:50:41.443Z,2.87
2022-11-21T01:51:41.438Z,2.79
2022-11-21T01:52:41.430Z,2.82
2022-11-21T01:53:41.433Z,2.79
2022-11-21T01:54:41.422Z,2.77
2022-11-21T01:55:41.422Z,2.69
2022-11-21T01:56:41.406Z,2.79
2022-11-21T01:57:41.404Z,2.72
2022-11-21T01:58:41.394Z,2.74
2022-11-21T01:59:41.396Z,2.74
2022-11-21T02:00:41.458Z,2.74
2022-11-21T02:01:41.382Z,2.71
2022-11-21T02:02:41.378Z,2.75
2022-11-21T02:03:41.374Z,2.79
2022-11-21T02:04:41.365Z,2.74
2022-11-21T02:05:41.360Z,2.69
2022-11-21T02:06:41.351Z,2.64
2022-11-21T02:07:41.505Z,2.53
2022-11-21T02:08:41.339Z,2.53
2022-11-21T02:09:41.333Z,2.54
2022-11-21T02:10:41.330Z,2.56
2022-11-21T02:11:41.320Z,2.53
2022-11-21T02:12:41.320Z,2.60
2022-11-21T02:13:41.314Z,2.60
2022-11-21T02:14:41.304Z,2.63
2022-11-21T02:15:41.300Z,2.74
2022-11-21T02:16:41.313Z,2.53
2022-11-21T02:17:41.289Z,2.59
2022-11-21T02:18:41.280Z,2.71
2022-11-21T02:19:41.278Z,2.75
2022-11-21T02:20:41.266Z,2.74
2022-11-21T02:21:41.269Z,2.72
2022-11-21T02:22:41.253Z,2.81
2022-11-21T02:23:41.250Z,2.75
2022-11-21T02:24:41.249Z,2.74
2022-11-21T02:25:41.240Z,2.78
2022-11-21T02:26:41.233Z,2.87
2022-11-21T02:27:41.224Z,2.75
2022-11-21T02:28:41.222Z,2.82
2022-11-21T02:29:41.221Z,2.77
2022-11-21T02:30:41.215Z,2.85
2022-11-21T02:31:41.205Z,2.92
2022-11-21T02:32:41.217Z,2.85
2022-11-21T02:33:41.198Z,2.82
2022-11-21T02:34:41.189Z,2.89
2022-11-21T02:35:41.180Z,2.79
2022-11-21T02:36:41.175Z,2.78
2022-11-21T02:37:41.165Z,2.74
2022-11-21T02:38:41.168Z,2.69
2022-11-21T02:39:41.157Z,2.77
2022-11-21T02:40:41.156Z,2.71
2022-11-21T02:41:41.146Z,2.75
2022-11-21T02:42:41.145Z,2.77
2022-11-21T02:43:41.136Z,2.74
2022-11-21T02:44:41.128Z,2.75
2022-11-21T02:45:41.117Z,2.63
2022-11-21T02:46:41.116Z,2.54
2022-11-21T02:47:41.107Z,2.63
2022-11-21T02:48:41.129Z,2.64
2022-11-21T02:49:41.094Z,2.71
2022-11-21T02:50:41.093Z,2.79
2022-11-21T02:51:41.087Z,2.81
2022-11-21T02:52:41.084Z,2.92
2022-11-21T02:53:41.072Z,2.95
2022-11-21T02:54:41.068Z,2.84
2022-11-21T02:55:41.063Z,2.96
2022-11-21T02:56:41.054Z,2.97
2022-11-21T02:57:41.051Z,2.92
2022-11-21T02:58:41.044Z,2.95
2022-11-21T02:59:41.035Z,2.96
2022-11-21T03:00:41.142Z,2.99
2022-11-21T03:01:41.026Z,2.96
2022-11-21T03:02:41.022Z,3.02
2022-11-21T03:03:41.016Z,2.99
2022-11-21T03:04:41.028Z,3.15
2022-11-21T03:05:41.002Z,3.13
2022-11-21T03:06:40.998Z,3.17
2022-11-21T03:07:41.081Z,3.21
2022-11-21T03:08:40.986Z,3.13
2022-11-21T03:09:40.980Z,3.18
2022-11-21T03:10:40.981Z,3.15
2022-11-21T03:11:40.966Z,3.15
2022-11-21T03:12:40.968Z,3.20
2022-11-21T03:13:40.960Z,3.05
2022-11-21T03:14:40.956Z,3.05
2022-11-21T03:15:40.944Z,2.99
2022-11-21T03:16:40.948Z,2.99
2022-11-21T03:17:40.943Z,2.96
2022-11-21T03:18:40.924Z,2.92
2022-11-21T03:19:40.917Z,2.90
2022-11-21T03:20:40.937Z,3.00
2022-11-21T03:21:40.908Z,2.95
2022-11-21T03:22:40.905Z,2.92
2022-11-21T03:23:40.895Z,2.96
2022-11-21T03:24:40.896Z,2.93
2022-11-21T03:25:40.882Z,3.05
2022-11-21T03:26:40.879Z,2.99
2022-11-21T03:27:40.872Z,2.99
2022-11-21T03:28:40.875Z,2.82
2022-11-21T03:29:40.859Z,2.79
2022-11-21T03:30:40.855Z,2.87
2022-11-21T03:31:40.851Z,2.77
2022-11-21T03:32:40.860Z,2.87
2022-11-21T03:33:40.843Z,2.82
2022-11-21T03:34:40.836Z,2.90
2022-11-21T03:35:40.829Z,2.87
2022-11-21T03:36:40.845Z,2.85
2022-11-21T03:37:40.814Z,2.90
2022-11-21T03:38:40.819Z,2.82
2022-11-21T03:39:40.809Z,2.90
2022-11-21T03:40:40.801Z,2.89
2022-11-21T03:41:40.791Z,2.84
2022-11-21T03:42:40.788Z,2.90
2022-11-21T03:43:40.785Z,2.93
2022-11-21T03:44:40.782Z,2.93
2022-11-21T03:45:40.765Z,2.96
2022-11-21T03:46:40.765Z,2.84
2022-11-21T03:47:40.754Z,2.72
2022-11-21T03:48:40.751Z,2.74
2022-11-21T03:49:40.747Z,2.72
2022-11-21T03:50:40.742Z,2.69
2022-11-21T03:51:40.733Z,2.75
2022-11-21T03:52:40.761Z,2.72
2022-11-21T03:53:40.721Z,2.74
2022-11-21T03:54:40.719Z,2.66
2022-11-21T03:55:40.714Z,2.66
2022-11-21T03:56:40.703Z,2.79
2022-11-21T03:57:40.699Z,2.66
2022-11-21T03:58:40.694Z,2.54
2022-11-21T03:59:40.686Z,2.54
2022-11-21T04:00:40.681Z,2.56
2022-11-21T04:01:40.859Z,2.64
2022-11-21T04:02:40.683Z,2.72
2022-11-21T04:03:40.669Z,2.75
2022-11-21T04:04:40.658Z,2.79
2022-11-21T04:05:40.647Z,2.75
2022-11-21T04:06:40.646Z,2.89
2022-11-21T04:07:40.681Z,2.79
2022-11-21T04:08:40.664Z,2.89
2022-11-21T04:09:40.626Z,2.96
2022-11-21T04:10:40.622Z,2.90
2022-11-21T04:11:40.627Z,2.89
2022-11-21T04:12:40.612Z,2.97
2022-11-21T04:13:40.602Z,2.92
2022-11-21T04:14:40.597Z,3.03
2022-11-21T04:15:40.592Z,3.00
2022-11-21T04:16:40.592Z,3.03
2022-11-21T04:17:40.579Z,3.03
2022-11-21T04:18:40.593Z,3.14
2022-11-21T04:19:40.568Z,3.15
2022-11-21T04:20:40.566Z,3.28
2022-11-21T04:21:40.553Z,3.24
2022-11-21T04:22:40.550Z,3.50
2022-11-21T04:23:40.610Z,3.51
2022-11-21T04:24:40.568Z,3.52
2022-11-21T04:25:40.538Z,3.50
2022-11-21T04:26:40.531Z,3.48
2022-11-21T04:27:40.520Z,3.40
2022-11-21T04:28:40.521Z,3.45
2022-11-21T04:29:40.508Z,3.48
2022-11-21T04:30:40.506Z,3.36
2022-11-21T04:31:40.500Z,3.33
2022-11-21T04:32:40.499Z,3.47
2022-11-21T04:33:40.484Z,3.50
2022-11-21T04:34:40.484Z,3.54
2022-11-21T04:35:40.477Z,3.54
2022-11-21T04:36:40.564Z,3.65
2022-11-21T04:37:40.471Z,3.62
2022-11-21T04:38:40.472Z,3.57
2022-11-21T04:39:40.453Z,3.69
2022-11-21T04:40:40.472Z,3.72
2022-11-21T04:41:40.439Z,3.88
2022-11-21T04:42:40.436Z,3.93
2022-11-21T04:43:40.430Z,4.00
2022-11-21T04:44:40.426Z,4.09
2022-11-21T04:45:40.416Z,4.12
2022-11-21T04:46:40.415Z,3.94
2022-11-21T04:47:40.412Z,4.00
2022-11-21T04:48:40.410Z,3.97
2022-11-21T04:49:40.393Z,3.84
2022-11-21T04:50:40.389Z,3.83
2022-11-21T04:51:40.381Z,3.75
2022-11-21T04:52:40.381Z,3.73
2022-11-21T04:53:43.145Z,3.75
2022-11-21T04:54:40.367Z,3.60
2022-11-21T04:55:40.363Z,3.61
2022-11-21T04:56:40.375Z,3.55
2022-11-21T04:57:40.357Z,3.45
2022-11-21T04:58:40.347Z,3.57
2022-11-21T04:59:40.339Z,3.50
2022-11-21T05:00:40.336Z,3.48
2022-11-21T05:01:40.356Z,3.45
2022-11-21T05:02:40.327Z,3.47
2022-11-21T05:03:40.315Z,3.35
2022-11-21T05:04:40.314Z,3.29
2022-11-21T05:05:40.302Z,3.24
2022-11-21T05:06:40.311Z,3.28
2022-11-21T05:07:40.691Z,3.24
2022-11-21T05:08:40.285Z,3.20
2022-11-21T05:09:40.281Z,3.15
2022-11-21T05:10:40.278Z,3.15
2022-11-21T05:11:40.282Z,3.14
2022-11-21T05:12:40.289Z,3.15
2022-11-21T05:13:40.256Z,3.14
2022-11-21T05:14:40.261Z,3.05
2022-11-21T05:15:40.248Z,3.13
2022-11-21T05:16:40.247Z,3.13
2022-11-21T05:17:40.232Z,3.15
2022-11-21T05:18:40.237Z,3.18
2022-11-21T05:19:40.225Z,3.14
2022-11-21T05:20:40.223Z,3.14
2022-11-21T05:21:40.217Z,3.21
2022-11-21T05:22:40.213Z,3.39
2022-11-21T05:23:40.203Z,3.57
2022-11-21T05:24:40.197Z,3.61
2022-11-21T05:25:40.200Z,3.88
2022-11-21T05:26:40.187Z,3.88
2022-11-21T05:27:40.182Z,4.02
2022-11-21T05:28:40.197Z,3.98
2022-11-21T05:29:40.167Z,4.11
2022-11-21T05:30:40.164Z,4.11
2022-11-21T05:31:40.154Z,4.05
2022-11-21T05:32:40.155Z,4.09
2022-11-21T05:33:40.149Z,4.00
2022-11-21T05:34:40.143Z,4.05
2022-11-21T05:35:43.153Z,4.14
2022-11-21T05:36:40.135Z,4.30
2022-11-21T05:37:40.123Z,4.30
2022-11-21T05:38:40.118Z,4.27
2022-11-21T05:39:40.111Z,4.37
2022-11-21T05:40:40.110Z,4.40
2022-11-21T05:41:40.095Z,4.42
2022-11-21T05:42:40.093Z,4.47
2022-11-21T05:43:40.088Z,4.54
2022-11-21T05:44:40.124Z,4.55
2022-11-21T05:45:40.079Z,4.45
2022-11-21T05:46:40.076Z,4.47
2022-11-21T05:47:40.061Z,4.36
2022-11-21T05:48:40.060Z,4.30
2022-11-21T05:49:40.055Z,4.36
2022-11-21T05:50:40.049Z,4.33
2022-11-21T05:51:40.041Z,4.33
2022-11-21T05:52:40.045Z,4.41
2022-11-21T05:53:40.030Z,4.42
2022-11-21T05:54:43.629Z,4.45
2022-11-21T05:55:40.025Z,4.54
2022-11-21T05:56:40.025Z,4.47
2022-11-21T05:57:40.012Z,4.44
2022-11-21T05:58:40.007Z,4.47
2022-11-21T05:59:40.001Z,4.55
2022-11-21T06:00:40.016Z,4.59
2022-11-21T06:01:39.997Z,4.52
2022-11-21T06:02:40.044Z,4.48
2022-11-21T06:03:39.977Z,4.50
2022-11-21T06:04:39.979Z,4.50
2022-11-21T06:05:39.962Z,4.50
2022-11-21T06:06:39.961Z,4.54
2022-11-21T06:07:40.032Z,4.54
2022-11-21T06:08:39.958Z,4.47
2022-11-21T06:09:39.941Z,4.48
2022-11-21T06:10:39.940Z,4.48
2022-11-21T06:11:39.932Z,4.34
2022-11-21T06:12:39.930Z,4.37
2022-11-21T06:13:39.922Z,4.36
2022-11-21T06:14:39.919Z,4.34
2022-11-21T06:15:39.915Z,4.33
2022-11-21T06:16:39.930Z,4.30
2022-11-21T06:17:39.899Z,4.32
2022-11-21T06:18:39.895Z,4.30
2022-11-21T06:19:39.885Z,4.32
2022-11-21T06:20:39.894Z,4.32
2022-11-21T06:21:39.878Z,4.24
2022-11-21T06:22:39.876Z,4.26
2022-11-21T06:23:39.868Z,4.26
2022-11-21T06:24:39.868Z,4.27
2022-11-21T06:25:39.856Z,4.27
2022-11-21T06:26:39.853Z,4.09
2022-11-21T06:27:39.846Z,4.22
2022-11-21T06:28:39.844Z,4.22
2022-11-21T06:29:39.837Z,4.14
2022-11-21T06:30:39.828Z,4.22
2022-11-21T06:31:39.823Z,4.24
2022-11-21T06:32:39.870Z,4.26
2022-11-21T06:33:39.818Z,4.15
2022-11-21T06:34:39.809Z,4.22
2022-11-21T06:35:39.802Z,4.23
2022-11-21T06:36:39.798Z,4.20
2022-11-21T06:37:39.790Z,4.24
2022-11-21T06:38:39.782Z,4.16
2022-11-21T06:39:39.783Z,4.22
2022-11-21T06:40:39.771Z,4.20
2022-11-21T06:41:39.769Z,4.24
2022-11-21T06:42:39.778Z,4.18
2022-11-21T06:43:39.764Z,4.27
2022-11-21T06:44:39.752Z,4.27
2022-11-21T06:45:39.751Z,4.20
2022-11-21T06:46:39.742Z,4.24
2022-11-21T06:47:39.738Z,4.24
2022-11-21T06:48:39.752Z,4.11
2022-11-21T06:49:39.732Z,4.29
2022-11-21T06:50:39.724Z,4.29
2022-11-21T06:51:39.724Z,4.23
2022-11-21T06:52:39.709Z,4.24
2022-11-21T06:53:39.703Z,4.11
2022-11-21T06:54:39.701Z,4.23
2022-11-21T06:55:39.700Z,4.29
2022-11-21T06:56:39.686Z,4.22
2022-11-21T06:57:39.685Z,4.12
2022-11-21T06:58:39.678Z,4.24
2022-11-21T06:59:39.676Z,4.14
2022-11-21T07:00:39.668Z,4.11
2022-11-21T07:01:39.747Z,4.20
2022-11-21T07:02:39.654Z,4.11
2022-11-21T07:03:39.653Z,4.23
2022-11-21T07:04:39.668Z,4.24
2022-11-21T07:05:39.641Z,4.34
2022-11-21T07:06:39.632Z,4.20
2022-11-21T07:07:39.689Z,4.23
2022-11-21T07:08:39.625Z,4.27
2022-11-21T07:09:39.631Z,4.24
2022-11-21T07:10:42.574Z,4.27
2022-11-21T07:11:39.613Z,4.26
2022-11-21T07:12:39.601Z,4.30
2022-11-21T07:13:39.604Z,4.32
2022-11-21T07:14:39.592Z,4.34
2022-11-21T07:15:39.590Z,4.30
2022-11-21T07:16:39.586Z,4.32
2022-11-21T07:17:39.582Z,4.34
2022-11-21T07:18:39.572Z,4.30
2022-11-21T07:19:41.029Z,4.32
2022-11-21T07:20:39.582Z,4.36
2022-11-21T07:21:39.560Z,4.36
2022-11-21T07:22:39.548Z,4.34
2022-11-21T07:23:39.548Z,4.40
2022-11-21T07:24:39.540Z,4.37
2022-11-21T07:25:39.538Z,4.41
2022-11-21T07:26:39.537Z,4.34
2022-11-21T07:27:39.529Z,4.32
2022-11-21T07:28:39.523Z,4.40
2022-11-21T07:29:39.526Z,4.34
2022-11-21T07:30:39.507Z,4.44
2022-11-21T07:31:39.555Z,4.34
2022-11-21T07:32:39.504Z,4.29
2022-11-21T07:33:39.503Z,4.29
2022-11-21T07:34:39.489Z,4.37
2022-11-21T07:35:39.486Z,4.27
2022-11-21T07:36:39.502Z,4.26
2022-11-21T07:37:39.483Z,4.22
2022-11-21T07:38:39.472Z,4.24
2022-11-21T07:39:39.469Z,4.09
2022-11-21T07:40:39.460Z,4.14
2022-11-21T07:41:39.457Z,4.11
2022-11-21T07:42:39.456Z,4.14
2022-11-21T07:43:39.444Z,4.15
2022-11-21T07:44:39.434Z,4.11
2022-11-21T07:45:39.434Z,4.20
2022-11-21T07:46:39.428Z,4.18
2022-11-21T07:47:39.426Z,4.14
2022-11-21T07:48:39.418Z,4.18
2022-11-21T07:49:39.418Z,4.18
2022-11-21T07:50:39.408Z,4.16
2022-11-21T07:51:39.404Z,4.11
2022-11-21T07:52:39.419Z,4.15
2022-11-21T07:53:39.395Z,4.09
2022-11-21T07:54:39.389Z,4.11
2022-11-21T07:55:40.965Z,4.06
2022-11-21T07:56:39.382Z,4.05
2022-11-21T07:57:39.375Z,4.05
2022-11-21T07:58:39.366Z,4.06
2022-11-21T07:59:39.360Z,3.90
2022-11-21T08:00:39.358Z,3.91
2022-11-21T08:01:45.020Z,3.97
2022-11-21T08:02:39.345Z,3.93
2022-11-21T08:03:39.343Z,3.90
2022-11-21T08:04:39.335Z,3.93
2022-11-21T08:05:39.384Z,3.97
2022-11-21T08:06:39.322Z,3.90
2022-11-21T08:07:39.377Z,3.87
2022-11-21T08:08:39.340Z,3.86
2022-11-21T08:09:39.933Z,3.87
2022-11-21T08:10:39.301Z,4.04
2022-11-21T08:11:39.299Z,4.11
2022-11-21T08:12:39.293Z,4.08
2022-11-21T08:13:39.283Z,4.08
2022-11-21T08:14:39.276Z,4.36
2022-11-21T08:15:39.280Z,4.50
2022-11-21T08:16:39.271Z,4.59
2022-11-21T08:17:39.270Z,4.70
2022-11-21T08:18:39.260Z,4.80
2022-11-21T08:19:39.261Z,4.70
2022-11-21T08:20:39.261Z,4.77
2022-11-21T08:21:39.252Z,4.85
2022-11-21T08:22:39.237Z,4.97
2022-11-21T08:23:39.238Z,5.03
2022-11-21T08:24:39.247Z,5.02
2022-11-21T08:25:39.225Z,5.04
2022-11-21T08:26:39.220Z,5.06
2022-11-21T08:27:39.219Z,5.09
2022-11-21T08:28:39.207Z,5.10
2022-11-21T08:29:39.205Z,5.15
2022-11-21T08:30:39.203Z,5.21
2022-11-21T08:31:39.248Z,5.24
2022-11-21T08:32:39.188Z,5.25
2022-11-21T08:33:39.185Z,5.36
2022-11-21T08:34:39.181Z,5.48
2022-11-21T08:35:39.183Z,5.48
2022-11-21T08:36:39.169Z,5.53
2022-11-21T08:37:39.168Z,5.53
2022-11-21T08:38:39.160Z,5.68
2022-11-21T08:39:39.158Z,5.67
2022-11-21T08:40:39.184Z,5.78
2022-11-21T08:41:39.149Z,5.82
2022-11-21T08:42:39.140Z,5.89
2022-11-21T08:43:39.142Z,5.94
2022-11-21T08:44:39.132Z,5.97
2022-11-21T08:45:39.132Z,5.99
2022-11-21T08:46:39.121Z,5.82
2022-11-21T08:47:39.123Z,5.85
2022-11-21T08:48:39.113Z,5.76
2022-11-21T08:49:39.117Z,5.74
2022-11-21T08:50:39.116Z,5.60
2022-11-21T08:51:39.107Z,5.46
2022-11-21T08:52:39.099Z,5.39
2022-11-21T08:53:39.096Z,5.46
2022-11-21T08:54:39.088Z,5.42
2022-11-21T08:55:39.082Z,5.51
2022-11-21T08:56:39.098Z,5.36
2022-11-21T08:57:39.076Z,5.24
2022-11-21T08:58:39.066Z,5.25
2022-11-21T08:59:39.065Z,5.22
2022-11-21T09:00:39.064Z,5.25
2022-11-21T09:01:39.109Z,5.24
2022-11-21T09:02:39.049Z,5.15
2022-11-21T09:03:39.054Z,5.30
2022-11-21T09:04:39.061Z,5.24
2022-11-21T09:05:39.047Z,5.22
2022-11-21T09:06:39.039Z,5.24
2022-11-21T09:07:39.100Z,5.13
2022-11-21T09:08:39.023Z,5.06
2022-11-21T09:09:39.021Z,5.06
2022-11-21T09:10:39.016Z,5.03
2022-11-21T09:11:39.014Z,4.99
2022-11-21T09:12:39.027Z,4.99
2022-11-21T09:13:39.010Z,5.00
2022-11-21T09:14:39.000Z,5.00
2022-11-21T09:15:38.994Z,5.02
2022-11-21T09:16:38.988Z,5.06
2022-11-21T09:17:38.993Z,4.97
2022-11-21T09:18:38.983Z,4.89
2022-11-21T09:19:38.977Z,4.91
2022-11-21T09:20:39.047Z,4.94
2022-11-21T09:21:38.968Z,4.91
2022-11-21T09:22:38.961Z,4.94
2022-11-21T09:23:38.959Z,4.92
2022-11-21T09:24:38.955Z,4.91
2022-11-21T09:25:38.956Z,4.99
2022-11-21T09:26:38.949Z,4.85
2022-11-21T09:27:38.939Z,4.86
2022-11-21T09:28:38.958Z,4.96
2022-11-21T09:29:38.929Z,4.84
2022-11-21T09:30:38.930Z,4.82
2022-11-21T09:31:38.923Z,4.82
2022-11-21T09:32:38.918Z,4.84
2022-11-21T09:33:38.919Z,4.86
2022-11-21T09:34:38.908Z,4.94
2022-11-21T09:35:38.907Z,4.96
2022-11-21T09:36:38.953Z,4.91
2022-11-21T09:37:38.904Z,4.97
2022-11-21T09:38:38.893Z,4.99
2022-11-21T09:39:38.890Z,5.04
2022-11-21T09:40:38.882Z,5.12
2022-11-21T09:41:38.878Z,5.07
2022-11-21T09:42:38.874Z,5.15
2022-11-21T09:43:38.869Z,5.13
2022-11-21T09:44:38.886Z,5.13
2022-11-21T09:45:38.877Z,5.17
2022-11-21T09:46:38.865Z,5.15
2022-11-21T09:47:38.858Z,5.09
2022-11-21T09:48:38.850Z,5.10
2022-11-21T09:49:38.842Z,5.15
2022-11-21T09:50:38.840Z,5.12
2022-11-21T09:51:38.838Z,5.12
2022-11-21T09:52:38.834Z,5.20
2022-11-21T09:53:38.826Z,5.17
2022-11-21T09:54:38.820Z,5.12
2022-11-21T09:55:38.822Z,5.25
2022-11-21T09:56:38.814Z,5.18
2022-11-21T09:57:38.809Z,5.22
2022-11-21T09:58:38.802Z,5.20
2022-11-21T09:59:38.811Z,5.24
2022-11-21T10:00:38.866Z,5.17
2022-11-21T10:01:38.788Z,5.24
2022-11-21T10:02:38.783Z,5.17
2022-11-21T10:03:38.805Z,5.20
2022-11-21T10:04:38.780Z,5.22
2022-11-21T10:05:38.778Z,5.21
2022-11-21T10:06:38.770Z,5.13
2022-11-21T10:07:38.822Z,5.18
2022-11-21T10:08:38.758Z,5.17
2022-11-21T10:09:38.762Z,5.24
2022-11-21T10:10:38.749Z,5.28
2022-11-21T10:11:38.755Z,5.22
2022-11-21T10:12:38.762Z,5.28
2022-11-21T10:13:38.739Z,5.28
2022-11-21T10:14:38.735Z,5.40
2022-11-21T10:15:38.732Z,5.30
2022-11-21T10:16:42.042Z,5.30
2022-11-21T10:17:38.743Z,5.42
2022-11-21T10:18:38.720Z,5.43
2022-11-21T10:19:38.710Z,5.46
2022-11-21T10:20:38.701Z,5.43
2022-11-21T10:21:38.754Z,5.60
2022-11-21T10:22:38.697Z,5.49
2022-11-21T10:23:39.027Z,5.49
2022-11-21T10:24:38.690Z,5.51
2022-11-21T10:25:38.703Z,5.58
2022-11-21T10:26:38.684Z,5.49
2022-11-21T10:27:38.682Z,5.35
2022-11-21T10:28:38.679Z,5.40
2022-11-21T10:29:38.671Z,5.42
2022-11-21T10:30:38.685Z,5.42
2022-11-21T10:31:38.660Z,5.48
2022-11-21T10:32:38.688Z,5.38
2022-11-21T10:33:38.653Z,5.40
2022-11-21T10:34:38.646Z,5.45
2022-11-21T10:35:38.651Z,5.49
2022-11-21T10:36:38.682Z,5.56
2022-11-21T10:37:38.644Z,5.49
2022-11-21T10:38:38.628Z,5.42
2022-11-21T10:39:38.634Z,5.42
2022-11-21T10:40:38.630Z,5.51
2022-11-21T10:41:38.618Z,5.38
2022-11-21T10:42:38.613Z,5.39
2022-11-21T10:43:38.611Z,5.43
2022-11-21T10:44:38.623Z,5.36
2022-11-21T10:45:38.607Z,5.42
2022-11-21T10:46:38.598Z,5.45
2022-11-21T10:47:38.599Z,5.43
2022-11-21T10:48:38.618Z,5.36
2022-11-21T10:49:38.585Z,5.43
2022-11-21T10:50:38.577Z,5.38
2022-11-21T10:51:38.579Z,5.67
2022-11-21T10:52:38.572Z,5.60
2022-11-21T10:53:38.566Z,5.74
2022-11-21T10:54:38.560Z,5.56
2022-11-21T10:55:38.553Z,5.51
2022-11-21T10:56:38.560Z,5.48
2022-11-21T10:57:38.556Z,5.53
2022-11-21T10:58:38.546Z,5.56
2022-11-21T10:59:38.542Z,5.54
2022-11-21T11:00:38.610Z,5.40
2022-11-21T11:01:38.534Z,5.38
2022-11-21T11:02:38.547Z,5.39
2022-11-21T11:03:38.521Z,5.35
2022-11-21T11:04:47.453Z,5.43
2022-11-21T11:05:38.515Z,5.39
2022-11-21T11:06:38.512Z,5.49
2022-11-21T11:07:38.609Z,5.43
2022-11-21T11:08:38.508Z,5.46
2022-11-21T11:09:38.495Z,5.58
2022-11-21T11:10:38.503Z,5.53
2022-11-21T11:11:38.494Z,5.51
2022-11-21T11:12:38.489Z,5.40
2022-11-21T11:13:45.866Z,5.35
2022-11-21T11:14:38.480Z,5.38
2022-11-21T11:15:38.469Z,5.35
2022-11-21T11:16:41.539Z,5.28
2022-11-21T11:17:38.462Z,5.22
2022-11-21T11:18:38.479Z,5.27
2022-11-21T11:19:40.388Z,5.28
2022-11-21T11:20:38.477Z,5.28
2022-11-21T11:21:38.444Z,5.24
2022-11-21T11:22:38.455Z,5.25
2022-11-21T11:23:38.438Z,5.17
2022-11-21T11:24:38.432Z,5.13
2022-11-21T11:25:38.446Z,5.12
2022-11-21T11:26:38.424Z,5.06
2022-11-21T11:27:38.418Z,5.06
2022-11-21T11:28:38.416Z,4.91
2022-11-21T11:29:38.409Z,4.92
2022-11-21T11:30:38.406Z,4.94
2022-11-21T11:31:38.405Z,5.04
2022-11-21T11:32:38.397Z,4.99
2022-11-21T11:33:38.397Z,5.03
2022-11-21T11:34:38.399Z,4.99
2022-11-21T11:35:38.378Z,5.03
2022-11-21T11:36:38.402Z,5.02
2022-11-21T11:37:40.817Z,4.97
2022-11-21T11:38:38.388Z,4.99
2022-11-21T11:39:38.365Z,4.94
2022-11-21T11:40:38.371Z,5.02
2022-11-21T11:41:38.356Z,5.02
2022-11-21T11:42:38.356Z,5.04
2022-11-21T11:43:38.350Z,5.09
2022-11-21T11:44:38.342Z,5.09
2022-11-21T11:45:38.340Z,5.10
2022-11-21T11:46:38.338Z,5.04
2022-11-21T11:47:38.329Z,5.02
2022-11-21T11:49:03.287Z,5.02
2022-11-21T11:49:38.703Z,4.94
2022-11-21T11:50:38.321Z,4.91
2022-11-21T11:51:38.318Z,4.92
2022-11-21T11:52:38.333Z,4.92
2022-11-21T11:53:38.301Z,4.97
2022-11-21T11:54:38.300Z,4.96
2022-11-21T11:55:38.294Z,4.99
2022-11-21T11:56:38.292Z,5.03
2022-11-21T11:57:38.289Z,4.94
2022-11-21T11:58:38.285Z,4.94
2022-11-21T11:59:38.280Z,4.89
2022-11-21T12:00:38.277Z,4.84
2022-11-21T12:01:38.267Z,4.91
2022-11-21T12:02:38.340Z,4.84
2022-11-21T12:03:38.264Z,4.89
2022-11-21T12:04:38.258Z,4.85
2022-11-21T12:05:38.249Z,4.94
2022-11-21T12:07:26.104Z,4.85
2022-11-21T12:08:42.847Z,4.85
2022-11-21T12:09:38.298Z,4.89
2022-11-21T12:10:38.228Z,5.03
2022-11-21T12:11:38.224Z,5.02
2022-11-21T12:12:38.230Z,4.94
2022-11-21T12:13:38.217Z,4.94
2022-11-21T12:14:38.211Z,4.94
2022-11-21T12:15:38.211Z,4.89
2022-11-21T12:16:38.210Z,4.99
2022-11-21T12:17:38.203Z,4.99
2022-11-21T12:18:38.200Z,5.03
2022-11-21T12:19:38.186Z,5.04
2022-11-21T12:20:38.186Z,5.04
2022-11-21T12:21:38.179Z,5.06
2022-11-21T12:22:38.176Z,5.12
2022-11-21T12:23:38.174Z,5.06
2022-11-21T12:24:42.730Z,5.00
2022-11-21T12:25:38.163Z,4.94
2022-11-21T12:26:38.163Z,5.00
2022-11-21T12:27:38.159Z,4.91
2022-11-21T12:28:38.157Z,4.94
2022-11-21T12:29:38.146Z,4.89
2022-11-21T12:30:38.143Z,4.97
2022-11-21T12:31:38.144Z,4.86
2022-11-21T12:32:38.134Z,4.94
2022-11-21T12:33:38.131Z,4.86
2022-11-21T12:34:38.126Z,4.89
2022-11-21T12:35:38.120Z,4.89
2022-11-21T12:36:38.116Z,4.88
2022-11-21T12:37:38.108Z,4.97
2022-11-21T12:38:43.454Z,5.02
2022-11-21T12:39:38.100Z,5.07
2022-11-21T12:40:38.134Z,5.04
2022-11-21T12:41:38.103Z,4.94
2022-11-21T12:42:38.084Z,4.84
2022-11-21T12:43:38.083Z,4.73
2022-11-21T12:44:38.084Z,4.67
2022-11-21T12:45:38.073Z,4.50
2022-11-21T12:46:38.076Z,4.42
2022-11-21T12:47:38.076Z,4.32
2022-11-21T12:48:38.065Z,4.27
2022-11-21T12:49:38.058Z,4.16
2022-11-21T12:50:38.055Z,4.30
2022-11-21T12:51:38.050Z,4.30
2022-11-21T12:52:38.059Z,4.14
2022-11-21T12:53:38.040Z,4.27
2022-11-21T12:54:38.043Z,4.18
2022-11-21T12:55:38.041Z,4.30
2022-11-21T12:56:38.057Z,4.36
2022-11-21T12:57:38.018Z,4.50
2022-11-21T12:58:38.019Z,4.54
2022-11-21T12:59:38.010Z,4.66
2022-11-21T13:00:38.019Z,4.84
2022-11-21T13:01:38.088Z,4.82
2022-11-21T13:02:38.008Z,4.94
2022-11-21T13:03:37.997Z,4.84
2022-11-21T13:04:37.992Z,4.85
2022-11-21T13:05:37.979Z,4.84
2022-11-21T13:06:37.983Z,4.72
2022-11-21T13:07:38.049Z,4.72
2022-11-21T13:08:37.989Z,4.72
2022-11-21T13:09:37.972Z,4.72
2022-11-21T13:10:37.966Z,4.88
2022-11-21T13:11:37.951Z,4.91
2022-11-21T13:12:37.970Z,4.91
2022-11-21T13:13:37.940Z,4.92
2022-11-21T13:14:37.946Z,4.86
2022-11-21T13:15:38.760Z,4.86
2022-11-21T13:16:37.932Z,4.94
2022-11-21T13:17:37.923Z,4.86
2022-11-21T13:18:37.920Z,5.00
2022-11-21T13:19:37.921Z,4.88